Arboga, California
Current Conditions -  °F | °C
As of 12:02 PM on Wednesday 17 Dec 2014 (Local Time) from KMYV Reporting Station
Overcast Overcast  
Wind Chill: 54°   Ceiling: 1300
Heat Index: 54°   Visibility: 10mi
Dew Point: 49°   Wind: 16mph
Humidity: 83%   Direction: 160°SSE
Pressure: 30.02"   Gusts: NA
Location:  39.0904°N, 121.552°W
Report Text: KMYV 172002Z AUTO 16014KT 10SM BKN013 OVC060 12/09 A3002 RMK AO2 T01220094
Loading
Personal Weather Stations






























Interactive Weather Map New forecast layout! Learn more

10-Day Weather Forecast

Advertisements
Track Severe Weather on mobile